createdAt,value
2017-10-31T00:02:16.653Z,6.60
2017-10-31T00:04:46.380Z,6.60
2017-10-31T00:07:15.308Z,6.70
2017-10-31T00:09:44.240Z,6.60
2017-10-31T00:12:13.596Z,6.70
2017-10-31T00:14:42.576Z,6.60
2017-10-31T00:17:11.511Z,6.60
2017-10-31T00:19:40.453Z,6.70
2017-10-31T00:22:09.770Z,6.70
2017-10-31T00:24:39.501Z,6.60
2017-10-31T00:27:09.221Z,6.60
2017-10-31T00:29:38.210Z,6.70
2017-10-31T00:32:07.513Z,6.70
2017-10-31T00:34:37.258Z,6.70
2017-10-31T00:37:06.235Z,6.80
2017-10-31T00:39:35.159Z,6.70
2017-10-31T00:42:04.137Z,6.70
2017-10-31T00:44:33.596Z,6.70
2017-10-31T00:47:02.503Z,6.70
2017-10-31T00:49:31.478Z,6.70
2017-10-31T00:52:01.169Z,6.70
2017-10-31T00:54:30.103Z,6.60
2017-10-31T00:56:59.028Z,6.70
2017-10-31T00:59:29.221Z,6.70
2017-10-31T01:01:58.154Z,6.80
2017-10-31T01:04:28.627Z,6.90
2017-10-31T01:06:58.306Z,6.90
2017-10-31T01:09:27.669Z,7.00
2017-10-31T01:12:03.763Z,7.10
2017-10-31T01:14:33.500Z,7.10
2017-10-31T01:17:03.179Z,7.20
2017-10-31T01:19:32.522Z,7.10
2017-10-31T01:22:02.612Z,7.00
2017-10-31T01:24:32.353Z,6.90
2017-10-31T01:27:01.314Z,6.90
2017-10-31T01:29:30.993Z,7.00
2017-10-31T01:31:59.941Z,7.00
2017-10-31T01:34:28.886Z,7.00
2017-10-31T01:36:57.840Z,7.00
2017-10-31T01:39:26.947Z,6.90
2017-10-31T01:41:55.873Z,7.00
2017-10-31T01:44:25.560Z,7.10
2017-10-31T01:46:54.508Z,7.10
2017-10-31T01:49:24.580Z,7.20
2017-10-31T01:51:53.532Z,7.20
2017-10-31T01:54:22.506Z,7.20
2017-10-31T01:56:51.430Z,7.30
2017-10-31T01:59:20.749Z,7.30
2017-10-31T02:01:49.692Z,7.20
2017-10-31T02:04:18.626Z,7.30
2017-10-31T02:06:47.591Z,7.40
2017-10-31T02:09:16.529Z,7.30
2017-10-31T02:11:46.260Z,7.50
2017-10-31T02:14:15.589Z,7.20
2017-10-31T02:16:44.526Z,7.30
2017-10-31T02:19:13.451Z,7.20
2017-10-31T02:21:42.816Z,7.20
2017-10-31T02:24:12.502Z,7.30
2017-10-31T02:26:41.421Z,7.30
2017-10-31T02:29:11.175Z,7.40
2017-10-31T02:31:40.103Z,7.40
2017-10-31T02:34:09.046Z,7.50
2017-10-31T02:36:38.803Z,7.50
2017-10-31T02:39:19.744Z,7.40
2017-10-31T02:41:48.702Z,7.50
2017-10-31T02:44:18.388Z,7.30
2017-10-31T02:46:48.107Z,7.40
2017-10-31T02:49:17.446Z,7.60
2017-10-31T02:51:46.392Z,7.60
2017-10-31T02:54:15.705Z,7.60
2017-10-31T02:56:44.661Z,7.70
2017-10-31T02:59:13.605Z,7.70
2017-10-31T03:01:42.972Z,7.70
2017-10-31T03:04:12.656Z,7.60
2017-10-31T03:06:41.579Z,7.60
2017-10-31T03:09:11.290Z,7.60
2017-10-31T03:11:40.254Z,7.60
2017-10-31T03:14:09.937Z,7.50
2017-10-31T03:16:39.648Z,7.60
2017-10-31T03:19:08.572Z,7.60
2017-10-31T03:21:38.300Z,7.50
2017-10-31T03:24:07.225Z,7.50
2017-10-31T03:26:36.955Z,7.40
2017-10-31T03:29:05.876Z,7.40
2017-10-31T03:31:34.791Z,7.40
2017-10-31T03:34:03.728Z,7.40
2017-10-31T03:36:32.793Z,7.50
2017-10-31T03:39:02.453Z,8.00
2017-10-31T03:41:31.395Z,7.50
2017-10-31T03:44:00.382Z,7.50
2017-10-31T03:46:29.848Z,7.40
2017-10-31T03:48:59.530Z,7.40
2017-10-31T03:51:28.474Z,7.40
2017-10-31T03:53:57.419Z,7.30
2017-10-31T03:56:27.135Z,7.20
2017-10-31T03:58:56.459Z,7.10
2017-10-31T04:01:25.413Z,7.10
2017-10-31T04:03:54.752Z,7.30
2017-10-31T04:06:23.684Z,7.40
2017-10-31T04:08:52.637Z,7.50
2017-10-31T04:11:21.571Z,7.50
2017-10-31T04:13:50.541Z,7.40
2017-10-31T04:16:19.882Z,7.50
2017-10-31T04:18:48.826Z,7.40
2017-10-31T04:21:17.760Z,7.40
2017-10-31T04:23:46.707Z,7.40
2017-10-31T04:26:15.617Z,7.50
2017-10-31T04:28:44.571Z,7.50
2017-10-31T04:31:13.903Z,7.60
2017-10-31T04:33:43.636Z,7.50
2017-10-31T04:36:12.547Z,7.50
2017-10-31T04:38:42.323Z,7.50
2017-10-31T04:41:11.643Z,7.40
2017-10-31T04:43:40.596Z,7.60
2017-10-31T04:46:09.515Z,7.60
2017-10-31T04:48:38.466Z,7.60
2017-10-31T04:51:07.391Z,7.60
2017-10-31T04:53:37.110Z,7.70
2017-10-31T04:56:06.806Z,7.60
2017-10-31T04:58:36.540Z,7.60
2017-10-31T05:01:06.343Z,7.50
2017-10-31T05:03:35.292Z,7.40
2017-10-31T05:06:04.613Z,7.40
2017-10-31T05:08:33.609Z,7.30
2017-10-31T05:11:02.542Z,7.30
2017-10-31T05:13:31.505Z,7.40
2017-10-31T05:16:00.437Z,7.40
2017-10-31T05:18:29.774Z,7.40
2017-10-31T05:20:58.729Z,7.60
2017-10-31T05:23:27.636Z,7.60
2017-10-31T05:25:56.567Z,7.60
2017-10-31T05:28:26.448Z,7.60
2017-10-31T05:30:55.835Z,7.60
2017-10-31T05:33:24.757Z,7.70
2017-10-31T05:35:53.701Z,7.70
2017-10-31T05:38:22.630Z,7.80
2017-10-31T05:40:51.585Z,7.70
2017-10-31T05:43:20.504Z,7.70
2017-10-31T05:45:49.444Z,7.80
2017-10-31T05:48:18.389Z,7.80
2017-10-31T05:50:47.327Z,7.80
2017-10-31T05:53:16.259Z,7.80
2017-10-31T05:55:45.235Z,7.70
2017-10-31T05:58:14.156Z,7.60
2017-10-31T06:00:43.085Z,7.60
2017-10-31T06:03:12.939Z,7.60
2017-10-31T06:05:42.264Z,7.60
2017-10-31T06:08:11.188Z,7.50
2017-10-31T06:10:40.108Z,7.60
2017-10-31T06:13:09.042Z,7.70
2017-10-31T06:15:38.258Z,7.70
2017-10-31T06:18:07.790Z,7.60
2017-10-31T06:20:36.710Z,7.60
2017-10-31T06:23:12.075Z,7.60
2017-10-31T06:26:00.717Z,7.60
2017-10-31T06:28:35.333Z,7.70
2017-10-31T06:31:09.986Z,7.70
2017-10-31T06:33:38.888Z,7.60
2017-10-31T06:36:08.630Z,7.60
2017-10-31T06:38:37.563Z,7.70
2017-10-31T06:41:06.501Z,7.60
2017-10-31T06:43:35.425Z,7.70
2017-10-31T06:46:04.393Z,7.60
2017-10-31T06:48:33.308Z,7.80
2017-10-31T06:51:02.624Z,7.80
2017-10-31T06:53:31.565Z,7.90
2017-10-31T06:56:00.536Z,7.80
2017-10-31T06:58:30.214Z,7.80
2017-10-31T07:00:59.199Z,7.80
2017-10-31T07:03:28.108Z,7.90
2017-10-31T07:05:57.461Z,8.00
2017-10-31T07:08:26.501Z,8.10
2017-10-31T07:10:55.428Z,8.10
2017-10-31T07:13:24.781Z,8.10
2017-10-31T07:15:53.777Z,8.10
2017-10-31T07:18:22.744Z,8.10
2017-10-31T07:20:52.543Z,8.00
2017-10-31T07:23:21.519Z,8.00
2017-10-31T07:25:51.492Z,8.00
2017-10-31T07:28:21.205Z,8.00
2017-10-31T07:30:50.856Z,8.00
2017-10-31T07:33:19.842Z,7.90
2017-10-31T07:35:48.875Z,8.00
2017-10-31T07:38:17.881Z,8.00
2017-10-31T07:40:46.858Z,7.90
2017-10-31T07:43:16.692Z,7.90
2017-10-31T07:45:46.540Z,8.10
2017-10-31T07:48:15.534Z,8.10
2017-10-31T07:50:44.518Z,8.20
2017-10-31T07:53:14.374Z,8.30
2017-10-31T07:55:43.345Z,8.30
2017-10-31T07:58:12.340Z,8.20
2017-10-31T08:00:41.934Z,8.30
2017-10-31T08:03:11.668Z,8.40
2017-10-31T08:05:40.687Z,8.50
2017-10-31T08:08:10.612Z,8.40
2017-10-31T08:10:40.384Z,8.40
2017-10-31T08:13:09.447Z,8.40
2017-10-31T08:15:38.504Z,8.30
2017-10-31T08:18:08.025Z,8.20
2017-10-31T08:20:37.826Z,8.30
2017-10-31T08:23:07.169Z,8.20
2017-10-31T08:25:36.206Z,8.20
2017-10-31T08:28:05.685Z,8.10
2017-10-31T08:30:34.640Z,8.20
2017-10-31T08:33:03.665Z,8.30
2017-10-31T08:35:32.636Z,8.40
2017-10-31T08:38:01.667Z,8.40
2017-10-31T08:40:31.627Z,8.50
2017-10-31T08:43:00.646Z,8.60
2017-10-31T08:45:29.996Z,8.60
2017-10-31T08:47:59.113Z,8.60
2017-10-31T08:50:28.545Z,8.60
2017-10-31T08:52:57.590Z,8.50
2017-10-31T08:55:26.671Z,8.50
2017-10-31T08:57:56.492Z,8.50
2017-10-31T09:00:26.260Z,8.50
2017-10-31T09:02:56.146Z,8.50
2017-10-31T09:05:25.141Z,8.50
2017-10-31T09:07:54.927Z,8.50
2017-10-31T09:10:23.941Z,8.50
2017-10-31T09:12:53.786Z,8.60
2017-10-31T09:15:22.851Z,8.50
2017-10-31T09:17:51.912Z,8.40
2017-10-31T09:20:21.689Z,8.50
2017-10-31T09:22:50.761Z,8.50
2017-10-31T09:25:20.609Z,8.50
2017-10-31T09:27:49.599Z,8.60
2017-10-31T09:30:19.689Z,8.70
2017-10-31T09:32:48.672Z,8.70
2017-10-31T09:35:18.074Z,8.80
2017-10-31T09:37:47.728Z,8.90
2017-10-31T09:40:18.348Z,9.00
2017-10-31T09:42:48.006Z,8.90
2017-10-31T09:45:17.004Z,8.90
2017-10-31T09:47:46.366Z,8.80
2017-10-31T09:50:15.720Z,8.80
2017-10-31T09:52:44.765Z,8.90
2017-10-31T09:55:14.310Z,9.00
2017-10-31T09:57:44.749Z,9.20
2017-10-31T10:00:14.853Z,9.10
2017-10-31T10:02:44.577Z,9.10
2017-10-31T10:05:13.595Z,9.20
2017-10-31T10:07:43.516Z,9.20
2017-10-31T10:10:13.617Z,9.20
2017-10-31T10:12:42.718Z,9.10
2017-10-31T10:15:11.726Z,9.10
2017-10-31T10:17:40.690Z,9.00
2017-10-31T10:20:09.672Z,9.00
2017-10-31T10:22:38.702Z,9.10
2017-10-31T10:25:08.268Z,9.10
2017-10-31T10:27:38.059Z,9.10
2017-10-31T10:30:07.553Z,9.20
2017-10-31T10:32:36.578Z,9.30
2017-10-31T10:35:05.557Z,9.30
2017-10-31T10:37:34.509Z,9.40
2017-10-31T10:40:03.541Z,9.20
2017-10-31T10:42:32.503Z,9.20
2017-10-31T10:45:02.866Z,9.20
2017-10-31T10:47:31.951Z,9.20
2017-10-31T10:50:02.479Z,9.10
2017-10-31T10:52:31.500Z,9.20
2017-10-31T10:55:00.476Z,9.20
2017-10-31T10:57:29.518Z,9.10
2017-10-31T10:59:58.515Z,9.20
2017-10-31T11:02:28.258Z,9.10
2017-10-31T11:04:57.304Z,9.10
2017-10-31T11:07:26.777Z,9.20
2017-10-31T11:09:55.789Z,9.20
2017-10-31T11:12:24.893Z,9.20
2017-10-31T11:14:53.882Z,9.20
2017-10-31T11:17:23.727Z,9.20
2017-10-31T11:19:53.094Z,9.20
2017-10-31T11:22:24.044Z,9.30
2017-10-31T11:24:53.847Z,9.10
2017-10-31T11:27:23.235Z,9.10
2017-10-31T11:29:52.648Z,9.20
2017-10-31T11:32:21.825Z,9.30
2017-10-31T11:34:51.628Z,9.20
2017-10-31T11:37:21.421Z,9.30
2017-10-31T11:39:52.588Z,9.30
2017-10-31T11:42:21.658Z,9.30
2017-10-31T11:44:50.845Z,9.30
2017-10-31T11:47:21.305Z,9.40
2017-10-31T11:49:51.066Z,9.50
2017-10-31T11:52:20.421Z,9.50
2017-10-31T11:54:49.649Z,9.60
2017-10-31T11:57:18.711Z,9.60
2017-10-31T11:59:48.516Z,9.70
2017-10-31T12:02:17.615Z,9.80
2017-10-31T12:04:47.404Z,9.80
2017-10-31T12:07:17.018Z,9.80
2017-10-31T12:09:46.460Z,10.10
2017-10-31T12:12:15.569Z,10.10
2017-10-31T12:14:45.308Z,10.20
2017-10-31T12:17:14.349Z,10.20
2017-10-31T12:19:43.336Z,10.40
2017-10-31T12:22:12.402Z,10.50
2017-10-31T12:24:42.459Z,10.50
2017-10-31T12:27:11.593Z,10.60
2017-10-31T12:29:40.552Z,10.70
2017-10-31T12:32:10.628Z,10.80
2017-10-31T12:34:39.693Z,10.90
2017-10-31T12:37:08.840Z,10.80
2017-10-31T12:39:38.587Z,10.90
2017-10-31T12:42:07.651Z,11.10
2017-10-31T12:44:37.210Z,11.10
2017-10-31T12:47:06.842Z,11.20
2017-10-31T12:49:36.710Z,11.20
2017-10-31T12:52:05.758Z,11.20
2017-10-31T12:54:34.761Z,11.00
2017-10-31T12:57:03.764Z,11.00
2017-10-31T12:59:32.743Z,11.00
2017-10-31T13:02:03.710Z,11.00
2017-10-31T13:04:32.748Z,11.00
2017-10-31T13:07:01.828Z,10.90
2017-10-31T13:09:31.397Z,10.90
2017-10-31T13:12:01.374Z,10.90
2017-10-31T13:14:31.164Z,10.90
2017-10-31T13:17:00.254Z,11.00
2017-10-31T13:19:29.665Z,11.20
2017-10-31T13:21:59.500Z,11.20
2017-10-31T13:24:28.577Z,11.20
2017-10-31T13:26:57.929Z,11.40
2017-10-31T13:29:27.906Z,11.50
2017-10-31T13:31:58.076Z,11.60
2017-10-31T13:34:28.426Z,11.50
2017-10-31T13:36:58.492Z,11.30
2017-10-31T13:39:28.056Z,11.40
2017-10-31T13:41:58.303Z,11.50
2017-10-31T13:44:27.781Z,11.40
2017-10-31T13:46:58.100Z,11.40
2017-10-31T13:49:28.864Z,11.40
2017-10-31T13:51:58.249Z,11.30
2017-10-31T13:54:27.261Z,11.40
2017-10-31T13:56:57.267Z,11.30
2017-10-31T13:59:26.295Z,11.50
2017-10-31T14:01:57.463Z,11.60
2017-10-31T14:04:27.517Z,11.40
2017-10-31T14:06:57.402Z,11.40
2017-10-31T14:09:28.633Z,11.40
2017-10-31T14:11:58.492Z,11.20
2017-10-31T14:14:27.616Z,11.20
2017-10-31T14:16:57.507Z,11.30
2017-10-31T14:19:26.934Z,11.20
2017-10-31T14:21:56.555Z,11.20
2017-10-31T14:24:25.587Z,11.30
2017-10-31T14:26:55.765Z,11.30
2017-10-31T14:29:25.336Z,11.30
2017-10-31T14:31:55.521Z,11.30
2017-10-31T14:34:25.370Z,11.30
2017-10-31T14:36:54.577Z,11.30
2017-10-31T14:39:23.614Z,11.40
2017-10-31T14:41:52.985Z,11.40
2017-10-31T14:44:22.746Z,11.40
2017-10-31T14:46:52.811Z,11.40
2017-10-31T14:49:21.953Z,11.40
2017-10-31T14:51:51.742Z,11.20
2017-10-31T14:54:21.513Z,11.10
2017-10-31T14:56:50.538Z,11.10
2017-10-31T14:59:20.008Z,11.20
2017-10-31T15:01:49.075Z,11.20
2017-10-31T15:04:18.054Z,11.10
2017-10-31T15:06:47.516Z,11.10
2017-10-31T15:09:17.074Z,11.00
2017-10-31T15:11:46.112Z,11.10
2017-10-31T15:14:15.638Z,11.00
2017-10-31T15:16:45.451Z,11.10
2017-10-31T15:19:15.321Z,11.00
2017-10-31T15:21:45.194Z,11.00
2017-10-31T15:24:14.637Z,11.10
2017-10-31T15:26:43.678Z,11.00
2017-10-31T15:29:13.485Z,11.00
2017-10-31T15:31:43.293Z,10.90
2017-10-31T15:34:13.117Z,10.80
2017-10-31T15:36:43.051Z,10.80
2017-10-31T15:39:12.115Z,10.90
2017-10-31T15:41:41.149Z,10.90
2017-10-31T15:44:10.257Z,11.00
2017-10-31T15:46:40.526Z,10.90
2017-10-31T15:49:09.621Z,10.90
2017-10-31T15:51:39.758Z,10.80
2017-10-31T15:54:08.961Z,10.80
2017-10-31T15:56:38.100Z,10.80
2017-10-31T15:59:07.111Z,10.90
2017-10-31T16:01:36.132Z,10.70
2017-10-31T16:04:06.909Z,10.60
2017-10-31T16:06:37.288Z,10.60
2017-10-31T16:09:07.273Z,10.70
2017-10-31T16:11:36.459Z,10.70
2017-10-31T16:14:05.559Z,10.70
2017-10-31T16:16:34.711Z,10.70
2017-10-31T16:19:03.775Z,10.60
2017-10-31T16:21:33.256Z,10.70
2017-10-31T16:24:02.471Z,10.70
2017-10-31T16:26:31.561Z,10.70
2017-10-31T16:29:00.657Z,10.60
2017-10-31T16:31:30.430Z,10.60
2017-10-31T16:33:59.424Z,10.60
2017-10-31T16:36:28.436Z,10.50
2017-10-31T16:38:57.515Z,10.50
2017-10-31T16:41:26.466Z,10.70
2017-10-31T16:43:55.443Z,10.50
2017-10-31T16:46:24.855Z,10.50
2017-10-31T16:48:53.831Z,10.40
2017-10-31T16:51:22.854Z,10.40
2017-10-31T16:53:52.228Z,10.30
2017-10-31T16:56:21.204Z,10.20
2017-10-31T16:58:50.575Z,10.20
2017-10-31T17:01:20.380Z,10.10
2017-10-31T17:03:49.372Z,10.00
2017-10-31T17:06:18.735Z,10.10
2017-10-31T17:08:47.722Z,10.20
2017-10-31T17:11:16.677Z,10.20
2017-10-31T17:13:45.663Z,10.30
2017-10-31T17:16:14.637Z,10.30
2017-10-31T17:18:43.632Z,10.20
2017-10-31T17:21:12.662Z,10.20
2017-10-31T17:23:42.422Z,10.10
2017-10-31T17:26:11.386Z,10.10
2017-10-31T17:28:40.385Z,10.10
2017-10-31T17:31:09.394Z,10.00
2017-10-31T17:33:38.541Z,10.10
2017-10-31T17:36:08.302Z,9.90
2017-10-31T17:38:37.283Z,9.90
2017-10-31T17:41:06.248Z,9.90
2017-10-31T17:43:35.456Z,9.80
2017-10-31T17:46:04.399Z,9.90
2017-10-31T17:48:33.431Z,9.90
2017-10-31T17:51:03.169Z,9.90
2017-10-31T17:53:32.175Z,9.90
2017-10-31T17:56:01.207Z,10.00
2017-10-31T17:58:30.175Z,10.10
2017-10-31T18:00:59.190Z,10.00
2017-10-31T18:03:28.188Z,9.80
2017-10-31T18:05:57.559Z,9.80
2017-10-31T18:08:26.553Z,9.80
2017-10-31T18:10:56.522Z,9.80
2017-10-31T18:13:25.936Z,9.70
2017-10-31T18:15:55.101Z,9.60
2017-10-31T18:18:25.744Z,9.70
2017-10-31T18:20:55.520Z,9.60
2017-10-31T18:23:25.298Z,9.60
2017-10-31T18:25:54.646Z,9.60
2017-10-31T18:28:26.090Z,9.60
2017-10-31T18:30:57.302Z,9.60
2017-10-31T18:33:27.537Z,9.60
2017-10-31T18:35:58.057Z,9.70
2017-10-31T18:38:27.834Z,9.60
2017-10-31T18:40:56.837Z,9.50
2017-10-31T18:43:27.108Z,9.50
2017-10-31T18:45:56.851Z,9.50
2017-10-31T18:48:25.877Z,9.60
2017-10-31T18:50:56.332Z,9.50
2017-10-31T18:53:26.119Z,9.60
2017-10-31T18:55:55.495Z,9.50
2017-10-31T18:58:24.514Z,9.60
2017-10-31T19:00:53.541Z,9.60
2017-10-31T19:03:23.559Z,9.50
2017-10-31T19:05:52.616Z,9.60
2017-10-31T19:08:22.388Z,9.60
2017-10-31T19:10:51.422Z,9.60
2017-10-31T19:13:20.463Z,9.60
2017-10-31T19:15:49.849Z,9.60
2017-10-31T19:18:19.263Z,9.50
2017-10-31T19:20:48.238Z,9.60
2017-10-31T19:23:18.821Z,9.60
2017-10-31T19:25:50.425Z,9.60
2017-10-31T19:28:20.212Z,9.60
2017-10-31T19:30:49.283Z,9.60
2017-10-31T19:33:18.410Z,9.60
2017-10-31T19:35:48.161Z,9.50
2017-10-31T19:38:18.440Z,9.60
2017-10-31T19:40:48.166Z,9.60
2017-10-31T19:43:17.208Z,9.60
2017-10-31T19:45:46.246Z,9.60
2017-10-31T19:48:15.707Z,9.60
2017-10-31T19:50:46.536Z,9.60
2017-10-31T19:53:15.949Z,9.60
2017-10-31T19:55:45.753Z,9.60
2017-10-31T19:58:15.273Z,9.60
2017-10-31T20:00:44.798Z,9.50
2017-10-31T20:03:14.301Z,9.60
2017-10-31T20:05:43.761Z,9.60
2017-10-31T20:08:13.455Z,9.60
2017-10-31T20:10:44.177Z,9.60
2017-10-31T20:13:13.319Z,9.50
2017-10-31T20:15:42.307Z,9.60
2017-10-31T20:18:12.212Z,9.60
2017-10-31T20:20:42.648Z,9.70
2017-10-31T20:23:12.149Z,9.70
2017-10-31T20:25:41.251Z,9.60
2017-10-31T20:28:10.343Z,9.70
2017-10-31T20:30:39.715Z,9.70
2017-10-31T20:33:09.386Z,9.60
2017-10-31T20:35:39.172Z,9.60
2017-10-31T20:38:08.216Z,9.60
2017-10-31T20:40:37.223Z,9.60
2017-10-31T20:43:06.771Z,9.60
2017-10-31T20:45:35.976Z,9.50
2017-10-31T20:48:05.409Z,9.60
2017-10-31T20:50:35.608Z,9.60
2017-10-31T20:53:04.624Z,9.60
2017-10-31T20:55:34.223Z,9.60
2017-10-31T20:58:03.246Z,9.60
2017-10-31T21:00:33.064Z,9.70
2017-10-31T21:03:02.078Z,9.60
2017-10-31T21:05:31.528Z,9.70
2017-10-31T21:08:00.489Z,9.70
2017-10-31T21:10:31.709Z,9.70
2017-10-31T21:13:01.280Z,9.70
2017-10-31T21:15:30.686Z,9.70
2017-10-31T21:17:59.655Z,9.80
2017-10-31T21:20:28.668Z,9.80
2017-10-31T21:22:57.640Z,9.80
2017-10-31T21:25:26.628Z,9.90
2017-10-31T21:27:55.608Z,9.90
2017-10-31T21:30:24.609Z,9.80
2017-10-31T21:32:53.975Z,9.90
2017-10-31T21:35:23.372Z,9.90
2017-10-31T21:37:52.371Z,9.80
2017-10-31T21:40:21.781Z,9.80
2017-10-31T21:42:51.521Z,9.80
2017-10-31T21:45:20.500Z,9.90
2017-10-31T21:47:49.882Z,9.80
2017-10-31T21:50:19.648Z,9.90
2017-10-31T21:52:48.581Z,10.00
2017-10-31T21:55:19.063Z,10.00
2017-10-31T21:57:48.031Z,10.00
2017-10-31T22:00:17.010Z,9.90
2017-10-31T22:02:46.006Z,9.80
2017-10-31T22:05:14.950Z,9.90
2017-10-31T22:07:43.953Z,9.90
2017-10-31T22:10:13.696Z,10.00
2017-10-31T22:12:42.673Z,10.10
2017-10-31T22:15:12.406Z,10.00
2017-10-31T22:17:41.343Z,10.00
2017-10-31T22:20:10.708Z,9.90
2017-10-31T22:22:39.670Z,10.00
2017-10-31T22:25:08.684Z,10.00
2017-10-31T22:27:37.625Z,10.00
2017-10-31T22:30:07.374Z,10.00
2017-10-31T22:32:36.341Z,10.00
2017-10-31T22:35:06.125Z,10.00
2017-10-31T22:37:35.858Z,10.00
2017-10-31T22:40:05.241Z,10.00
2017-10-31T22:42:34.593Z,10.00
2017-10-31T22:45:03.555Z,10.00
2017-10-31T22:47:32.513Z,10.00
2017-10-31T22:50:02.262Z,10.00
2017-10-31T22:52:31.192Z,9.90
2017-10-31T22:55:00.181Z,10.00
2017-10-31T22:57:29.109Z,10.00
2017-10-31T22:59:58.853Z,10.10
2017-10-31T23:02:27.803Z,10.10
2017-10-31T23:04:56.764Z,10.00
2017-10-31T23:07:25.719Z,10.10
2017-10-31T23:09:54.686Z,10.10
2017-10-31T23:12:24.407Z,10.10
2017-10-31T23:14:54.147Z,10.10
2017-10-31T23:17:23.109Z,10.20
2017-10-31T23:19:52.087Z,10.10
2017-10-31T23:22:25.190Z,10.20
2017-10-31T23:24:57.691Z,10.20
2017-10-31T23:27:26.617Z,10.20
2017-10-31T23:29:55.988Z,10.30
2017-10-31T23:32:25.701Z,10.20
2017-10-31T23:34:54.702Z,10.20
2017-10-31T23:37:23.643Z,10.20
2017-10-31T23:40:04.826Z,10.20
2017-10-31T23:42:50.789Z,10.20
2017-10-31T23:45:32.001Z,10.20
2017-10-31T23:48:04.688Z,10.20
2017-10-31T23:50:39.271Z,10.30
2017-10-31T23:53:19.980Z,10.30
2017-10-31T23:55:49.733Z,10.30
2017-10-31T23:58:18.669Z,10.30
